sensor_id;sensor_type;location;lat;lon;timestamp;temperature;humidity
63219;DHT22;49320;52.512;13.448;2022-12-31T00:00:14;12.50;79.90
63219;DHT22;49320;52.512;13.448;2022-12-31T00:02:41;12.50;80.00
63219;DHT22;49320;52.512;13.448;2022-12-31T00:05:08;12.50;79.90
63219;DHT22;49320;52.512;13.448;2022-12-31T00:07:36;12.50;79.90
63219;DHT22;49320;52.512;13.448;2022-12-31T00:10:03;12.60;79.10
63219;DHT22;49320;52.512;13.448;2022-12-31T00:12:30;12.60;79.90
63219;DHT22;49320;52.512;13.448;2022-12-31T00:14:57;12.50;79.70
63219;DHT22;49320;52.512;13.448;2022-12-31T00:17:24;12.70;79.70
63219;DHT22;49320;52.512;13.448;2022-12-31T00:19:50;12.70;79.70
63219;DHT22;49320;52.512;13.448;2022-12-31T00:22:17;12.70;79.70
63219;DHT22;49320;52.512;13.448;2022-12-31T00:24:44;12.70;79.70
63219;DHT22;49320;52.512;13.448;2022-12-31T00:27:11;12.80;79.70
63219;DHT22;49320;52.512;13.448;2022-12-31T00:29:37;12.80;79.70
63219;DHT22;49320;52.512;13.448;2022-12-31T00:32:05;12.80;80.30
63219;DHT22;49320;52.512;13.448;2022-12-31T00:34:32;12.70;79.50
63219;DHT22;49320;52.512;13.448;2022-12-31T00:36:59;12.80;79.60
63219;DHT22;49320;52.512;13.448;2022-12-31T00:39:25;12.80;79.50
63219;DHT22;49320;52.512;13.448;2022-12-31T00:41:52;12.90;79.50
63219;DHT22;49320;52.512;13.448;2022-12-31T00:44:19;12.90;79.50
63219;DHT22;49320;52.512;13.448;2022-12-31T00:46:46;12.90;79.40
63219;DHT22;49320;52.512;13.448;2022-12-31T00:49:13;12.90;79.30
63219;DHT22;49320;52.512;13.448;2022-12-31T00:51:40;12.90;79.30
63219;DHT22;49320;52.512;13.448;2022-12-31T00:54:07;12.80;79.10
63219;DHT22;49320;52.512;13.448;2022-12-31T00:56:35;12.80;79.10
63219;DHT22;49320;52.512;13.448;2022-12-31T00:59:02;12.80;79.10
63219;DHT22;49320;52.512;13.448;2022-12-31T01:01:34;12.80;79.20
63219;DHT22;49320;52.512;13.448;2022-12-31T01:04:12;12.80;79.50
63219;DHT22;49320;52.512;13.448;2022-12-31T01:06:41;12.40;79.30
63219;DHT22;49320;52.512;13.448;2022-12-31T01:09:10;12.70;79.30
63219;DHT22;49320;52.512;13.448;2022-12-31T01:11:39;12.70;79.40
63219;DHT22;49320;52.512;13.448;2022-12-31T01:14:12;12.60;79.30
63219;DHT22;49320;52.512;13.448;2022-12-31T01:16:47;12.60;79.60
63219;DHT22;49320;52.512;13.448;2022-12-31T01:19:21;12.60;79.70
63219;DHT22;49320;52.512;13.448;2022-12-31T01:21:50;12.60;80.00
63219;DHT22;49320;52.512;13.448;2022-12-31T01:24:18;12.60;80.00
63219;DHT22;49320;52.512;13.448;2022-12-31T01:26:46;12.60;80.00
63219;DHT22;49320;52.512;13.448;2022-12-31T01:29:13;12.60;80.10
63219;DHT22;49320;52.512;13.448;2022-12-31T01:31:42;12.60;80.30
63219;DHT22;49320;52.512;13.448;2022-12-31T01:34:09;12.60;80.30
63219;DHT22;49320;52.512;13.448;2022-12-31T01:36:36;12.70;80.50
63219;DHT22;49320;52.512;13.448;2022-12-31T01:39:06;12.70;80.70
63219;DHT22;49320;52.512;13.448;2022-12-31T01:41:37;12.70;80.80
63219;DHT22;49320;52.512;13.448;2022-12-31T01:46:43;12.70;81.00
63219;DHT22;49320;52.512;13.448;2022-12-31T01:49:18;12.80;80.90
63219;DHT22;49320;52.512;13.448;2022-12-31T01:54:54;12.90;80.80
63219;DHT22;49320;52.512;13.448;2022-12-31T01:57:27;12.90;80.80
63219;DHT22;49320;52.512;13.448;2022-12-31T01:59:55;12.90;80.60
63219;DHT22;49320;52.512;13.448;2022-12-31T02:02:22;13.00;80.90
63219;DHT22;49320;52.512;13.448;2022-12-31T02:04:50;13.00;80.90
63219;DHT22;49320;52.512;13.448;2022-12-31T02:07:21;13.00;81.00
63219;DHT22;49320;52.512;13.448;2022-12-31T02:09:48;13.10;81.20
63219;DHT22;49320;52.512;13.448;2022-12-31T02:12:15;13.10;81.20
63219;DHT22;49320;52.512;13.448;2022-12-31T02:14:44;13.10;81.20
63219;DHT22;49320;52.512;13.448;2022-12-31T02:23:29;13.30;81.90
63219;DHT22;49320;52.512;13.448;2022-12-31T02:29:03;13.40;81.90
63219;DHT22;49320;52.512;13.448;2022-12-31T02:31:58;13.40;81.80
63219;DHT22;49320;52.512;13.448;2022-12-31T02:34:42;13.50;81.70
63219;DHT22;49320;52.512;13.448;2022-12-31T02:37:18;13.50;82.00
63219;DHT22;49320;52.512;13.448;2022-12-31T02:39:47;13.60;81.60
63219;DHT22;49320;52.512;13.448;2022-12-31T02:42:15;13.60;81.50
63219;DHT22;49320;52.512;13.448;2022-12-31T02:44:42;13.70;81.50
63219;DHT22;49320;52.512;13.448;2022-12-31T02:47:12;13.70;81.40
63219;DHT22;49320;52.512;13.448;2022-12-31T02:50:19;13.60;81.40
63219;DHT22;49320;52.512;13.448;2022-12-31T02:53:16;13.70;82.00
63219;DHT22;49320;52.512;13.448;2022-12-31T02:56:26;13.70;82.40
63219;DHT22;49320;52.512;13.448;2022-12-31T02:59:21;13.80;81.80
63219;DHT22;49320;52.512;13.448;2022-12-31T03:02:15;13.80;81.70
63219;DHT22;49320;52.512;13.448;2022-12-31T03:04:54;13.80;81.00
63219;DHT22;49320;52.512;13.448;2022-12-31T03:07:27;13.80;81.30
63219;DHT22;49320;52.512;13.448;2022-12-31T03:09:57;13.80;81.10
63219;DHT22;49320;52.512;13.448;2022-12-31T03:12:27;13.70;80.80
63219;DHT22;49320;52.512;13.448;2022-12-31T03:15:28;13.80;80.10
63219;DHT22;49320;52.512;13.448;2022-12-31T03:20:43;13.70;80.60
63219;DHT22;49320;52.512;13.448;2022-12-31T03:23:35;13.70;80.80
63219;DHT22;49320;52.512;13.448;2022-12-31T03:26:06;13.70;80.70
63219;DHT22;49320;52.512;13.448;2022-12-31T03:28:39;13.80;80.70
63219;DHT22;49320;52.512;13.448;2022-12-31T03:31:08;13.70;81.10
63219;DHT22;49320;52.512;13.448;2022-12-31T03:33:38;13.70;80.60
63219;DHT22;49320;52.512;13.448;2022-12-31T03:36:10;13.70;80.70
63219;DHT22;49320;52.512;13.448;2022-12-31T03:38:39;13.60;80.80
63219;DHT22;49320;52.512;13.448;2022-12-31T03:41:09;13.60;80.80
63219;DHT22;49320;52.512;13.448;2022-12-31T03:46:04;13.60;80.60
63219;DHT22;49320;52.512;13.448;2022-12-31T03:48:31;13.60;81.30
63219;DHT22;49320;52.512;13.448;2022-12-31T03:53:25;13.60;80.90
63219;DHT22;49320;52.512;13.448;2022-12-31T03:55:53;13.60;81.50
63219;DHT22;49320;52.512;13.448;2022-12-31T03:58:20;13.60;81.60
63219;DHT22;49320;52.512;13.448;2022-12-31T04:00:48;13.60;81.70
63219;DHT22;49320;52.512;13.448;2022-12-31T04:03:15;13.70;81.80
63219;DHT22;49320;52.512;13.448;2022-12-31T04:05:42;13.60;81.70
63219;DHT22;49320;52.512;13.448;2022-12-31T04:08:09;13.70;82.00
63219;DHT22;49320;52.512;13.448;2022-12-31T04:10:35;13.70;81.90
63219;DHT22;49320;52.512;13.448;2022-12-31T04:13:02;13.70;81.90
63219;DHT22;49320;52.512;13.448;2022-12-31T04:15:30;13.70;81.90
63219;DHT22;49320;52.512;13.448;2022-12-31T04:17:57;13.80;82.10
63219;DHT22;49320;52.512;13.448;2022-12-31T04:20:24;13.80;82.10
63219;DHT22;49320;52.512;13.448;2022-12-31T04:22:51;13.80;82.10
63219;DHT22;49320;52.512;13.448;2022-12-31T04:25:17;13.80;82.10
63219;DHT22;49320;52.512;13.448;2022-12-31T04:27:44;13.90;82.20
63219;DHT22;49320;52.512;13.448;2022-12-31T04:30:12;13.90;82.10
63219;DHT22;49320;52.512;13.448;2022-12-31T04:32:39;13.90;82.20
63219;DHT22;49320;52.512;13.448;2022-12-31T04:35:07;14.00;82.20
63219;DHT22;49320;52.512;13.448;2022-12-31T04:37:35;14.00;82.30
63219;DHT22;49320;52.512;13.448;2022-12-31T04:40:02;14.00;82.20
63219;DHT22;49320;52.512;13.448;2022-12-31T04:42:33;14.00;82.20
63219;DHT22;49320;52.512;13.448;2022-12-31T04:45:00;14.10;82.30
63219;DHT22;49320;52.512;13.448;2022-12-31T04:47:27;14.10;82.30
63219;DHT22;49320;52.512;13.448;2022-12-31T04:49:53;14.10;82.40
63219;DHT22;49320;52.512;13.448;2022-12-31T04:52:20;12.50;81.30
63219;DHT22;49320;52.512;13.448;2022-12-31T04:54:48;14.20;82.40
63219;DHT22;49320;52.512;13.448;2022-12-31T04:59:42;14.30;81.80
63219;DHT22;49320;52.512;13.448;2022-12-31T05:02:09;14.30;82.50
63219;DHT22;49320;52.512;13.448;2022-12-31T05:04:36;14.30;82.50
63219;DHT22;49320;52.512;13.448;2022-12-31T05:07:03;14.40;82.60
63219;DHT22;49320;52.512;13.448;2022-12-31T05:09:30;14.50;82.50
63219;DHT22;49320;52.512;13.448;2022-12-31T05:11:57;14.40;82.50
63219;DHT22;49320;52.512;13.448;2022-12-31T05:14:23;14.40;82.50
63219;DHT22;49320;52.512;13.448;2022-12-31T05:16:50;14.40;82.50
63219;DHT22;49320;52.512;13.448;2022-12-31T05:19:17;14.50;82.60
63219;DHT22;49320;52.512;13.448;2022-12-31T05:21:44;14.50;82.40
63219;DHT22;49320;52.512;13.448;2022-12-31T05:24:31;14.50;82.50
63219;DHT22;49320;52.512;13.448;2022-12-31T05:26:58;14.50;82.50
63219;DHT22;49320;52.512;13.448;2022-12-31T05:29:25;14.60;82.60
63219;DHT22;49320;52.512;13.448;2022-12-31T05:31:52;14.60;82.60
63219;DHT22;49320;52.512;13.448;2022-12-31T05:34:18;14.70;82.70
63219;DHT22;49320;52.512;13.448;2022-12-31T05:36:45;14.60;82.70
63219;DHT22;49320;52.512;13.448;2022-12-31T05:39:12;14.70;82.80
63219;DHT22;49320;52.512;13.448;2022-12-31T05:41:39;14.70;83.60
63219;DHT22;49320;52.512;13.448;2022-12-31T05:44:05;14.70;83.00
63219;DHT22;49320;52.512;13.448;2022-12-31T05:46:32;14.70;83.40
63219;DHT22;49320;52.512;13.448;2022-12-31T05:48:59;14.80;83.70
63219;DHT22;49320;52.512;13.448;2022-12-31T05:51:26;14.70;83.90
63219;DHT22;49320;52.512;13.448;2022-12-31T05:53:52;14.70;83.90
63219;DHT22;49320;52.512;13.448;2022-12-31T05:56:19;14.70;84.20
63219;DHT22;49320;52.512;13.448;2022-12-31T05:58:46;14.70;84.60
63219;DHT22;49320;52.512;13.448;2022-12-31T06:01:13;14.70;84.80
63219;DHT22;49320;52.512;13.448;2022-12-31T06:03:40;14.70;84.90
63219;DHT22;49320;52.512;13.448;2022-12-31T06:06:07;14.70;85.10
63219;DHT22;49320;52.512;13.448;2022-12-31T06:08:34;14.70;85.20
63219;DHT22;49320;52.512;13.448;2022-12-31T06:11:01;14.70;85.50
63219;DHT22;49320;52.512;13.448;2022-12-31T06:13:27;14.70;86.00
63219;DHT22;49320;52.512;13.448;2022-12-31T06:15:54;14.70;85.80
63219;DHT22;49320;52.512;13.448;2022-12-31T06:18:21;14.60;85.70
63219;DHT22;49320;52.512;13.448;2022-12-31T06:20:48;14.70;85.80
63219;DHT22;49320;52.512;13.448;2022-12-31T06:23:15;14.70;86.00
63219;DHT22;49320;52.512;13.448;2022-12-31T06:25:42;14.70;86.30
63219;DHT22;49320;52.512;13.448;2022-12-31T06:28:08;14.70;86.20
63219;DHT22;49320;52.512;13.448;2022-12-31T06:30:45;14.70;86.10
63219;DHT22;49320;52.512;13.448;2022-12-31T06:33:11;14.70;86.10
63219;DHT22;49320;52.512;13.448;2022-12-31T06:35:38;14.70;85.90
63219;DHT22;49320;52.512;13.448;2022-12-31T06:38:05;14.70;86.20
63219;DHT22;49320;52.512;13.448;2022-12-31T06:40:32;14.70;86.40
63219;DHT22;49320;52.512;13.448;2022-12-31T06:45:26;14.80;86.00
63219;DHT22;49320;52.512;13.448;2022-12-31T06:47:53;14.80;86.60
63219;DHT22;49320;52.512;13.448;2022-12-31T06:50:20;14.80;86.70
63219;DHT22;49320;52.512;13.448;2022-12-31T06:52:47;14.80;86.80
63219;DHT22;49320;52.512;13.448;2022-12-31T06:55:14;14.90;86.30
63219;DHT22;49320;52.512;13.448;2022-12-31T06:57:41;14.90;86.90
63219;DHT22;49320;52.512;13.448;2022-12-31T07:00:09;14.90;86.90
63219;DHT22;49320;52.512;13.448;2022-12-31T07:03:05;15.00;87.00
63219;DHT22;49320;52.512;13.448;2022-12-31T07:05:41;15.00;87.80
63219;DHT22;49320;52.512;13.448;2022-12-31T07:11:05;15.10;87.30
63219;DHT22;49320;52.512;13.448;2022-12-31T07:13:50;15.10;87.20
63219;DHT22;49320;52.512;13.448;2022-12-31T07:16:48;15.20;87.50
63219;DHT22;49320;52.512;13.448;2022-12-31T07:22:29;15.30;87.20
63219;DHT22;49320;52.512;13.448;2022-12-31T07:24:56;15.30;86.70
63219;DHT22;49320;52.512;13.448;2022-12-31T07:27:46;15.40;86.80
63219;DHT22;49320;52.512;13.448;2022-12-31T07:30:24;15.40;87.10
63219;DHT22;49320;52.512;13.448;2022-12-31T07:33:21;15.30;86.80
63219;DHT22;49320;52.512;13.448;2022-12-31T07:36:03;15.50;86.80
63219;DHT22;49320;52.512;13.448;2022-12-31T07:39:09;15.60;86.70
63219;DHT22;49320;52.512;13.448;2022-12-31T07:41:57;15.70;86.70
63219;DHT22;49320;52.512;13.448;2022-12-31T07:44:53;15.70;86.70
63219;DHT22;49320;52.512;13.448;2022-12-31T07:47:28;15.80;86.60
63219;DHT22;49320;52.512;13.448;2022-12-31T07:49:56;15.80;86.00
63219;DHT22;49320;52.512;13.448;2022-12-31T07:52:23;15.90;86.10
63219;DHT22;49320;52.512;13.448;2022-12-31T07:54:50;15.90;86.00
63219;DHT22;49320;52.512;13.448;2022-12-31T07:57:19;16.00;86.00
63219;DHT22;49320;52.512;13.448;2022-12-31T08:00:00;16.00;86.00
63219;DHT22;49320;52.512;13.448;2022-12-31T08:03:22;16.10;86.00
63219;DHT22;49320;52.512;13.448;2022-12-31T08:06:16;16.10;86.00
63219;DHT22;49320;52.512;13.448;2022-12-31T08:09:14;16.20;85.90
63219;DHT22;49320;52.512;13.448;2022-12-31T08:11:57;16.30;85.60
63219;DHT22;49320;52.512;13.448;2022-12-31T08:14:26;16.30;85.50
63219;DHT22;49320;52.512;13.448;2022-12-31T08:16:55;16.40;85.30
63219;DHT22;49320;52.512;13.448;2022-12-31T08:27:59;16.60;84.90
63219;DHT22;49320;52.512;13.448;2022-12-31T08:31:00;16.60;84.60
63219;DHT22;49320;52.512;13.448;2022-12-31T08:33:46;16.70;84.60
63219;DHT22;49320;52.512;13.448;2022-12-31T08:39:41;16.80;85.00
63219;DHT22;49320;52.512;13.448;2022-12-31T08:42:26;16.90;84.20
63219;DHT22;49320;52.512;13.448;2022-12-31T08:45:22;17.00;83.30
63219;DHT22;49320;52.512;13.448;2022-12-31T08:48:14;16.90;83.80
63219;DHT22;49320;52.512;13.448;2022-12-31T08:50:44;17.20;83.80
63219;DHT22;49320;52.512;13.448;2022-12-31T08:53:11;17.00;83.70
63219;DHT22;49320;52.512;13.448;2022-12-31T08:55:39;17.10;83.60
63219;DHT22;49320;52.512;13.448;2022-12-31T08:58:28;17.10;83.50
63219;DHT22;49320;52.512;13.448;2022-12-31T09:01:20;17.20;82.70
63219;DHT22;49320;52.512;13.448;2022-12-31T09:03:57;17.20;83.20
63219;DHT22;49320;52.512;13.448;2022-12-31T09:06:39;17.30;83.10
63219;DHT22;49320;52.512;13.448;2022-12-31T09:09:31;17.40;82.90
63219;DHT22;49320;52.512;13.448;2022-12-31T09:12:23;17.40;82.70
63219;DHT22;49320;52.512;13.448;2022-12-31T09:15:12;17.50;82.60
63219;DHT22;49320;52.512;13.448;2022-12-31T09:17:48;17.50;82.40
63219;DHT22;49320;52.512;13.448;2022-12-31T09:23:09;17.60;82.10
63219;DHT22;49320;52.512;13.448;2022-12-31T09:26:05;17.70;82.10
63219;DHT22;49320;52.512;13.448;2022-12-31T09:31:54;17.80;81.70
63219;DHT22;49320;52.512;13.448;2022-12-31T09:34:50;17.90;81.60
63219;DHT22;49320;52.512;13.448;2022-12-31T09:37:47;18.00;81.40
63219;DHT22;49320;52.512;13.448;2022-12-31T09:46:54;18.10;80.70
63219;DHT22;49320;52.512;13.448;2022-12-31T09:50:13;18.20;80.60
63219;DHT22;49320;52.512;13.448;2022-12-31T09:55:51;18.20;80.10
63219;DHT22;49320;52.512;13.448;2022-12-31T09:58:37;18.40;80.40
63219;DHT22;49320;52.512;13.448;2022-12-31T10:07:31;18.60;79.80
63219;DHT22;49320;52.512;13.448;2022-12-31T10:10:17;18.70;79.60
63219;DHT22;49320;52.512;13.448;2022-12-31T10:16:03;18.90;79.30
63219;DHT22;49320;52.512;13.448;2022-12-31T10:25:39;19.10;78.00
63219;DHT22;49320;52.512;13.448;2022-12-31T10:39:56;19.20;77.40
63219;DHT22;49320;52.512;13.448;2022-12-31T10:45:50;19.30;76.70
63219;DHT22;49320;52.512;13.448;2022-12-31T10:48:58;19.40;76.70
63219;DHT22;49320;52.512;13.448;2022-12-31T11:01:06;19.40;76.20
63219;DHT22;49320;52.512;13.448;2022-12-31T11:10:25;19.50;76.30
63219;DHT22;49320;52.512;13.448;2022-12-31T11:19:27;19.50;76.10
63219;DHT22;49320;52.512;13.448;2022-12-31T11:22:24;19.50;76.00
63219;DHT22;49320;52.512;13.448;2022-12-31T11:28:02;19.50;76.00
63219;DHT22;49320;52.512;13.448;2022-12-31T11:37:28;19.50;75.70
63219;DHT22;49320;52.512;13.448;2022-12-31T11:43:15;19.50;75.60
63219;DHT22;49320;52.512;13.448;2022-12-31T11:49:01;19.60;75.30
63219;DHT22;49320;52.512;13.448;2022-12-31T11:57:49;19.60;75.20
63219;DHT22;49320;52.512;13.448;2022-12-31T12:00:21;19.60;75.40
63219;DHT22;49320;52.512;13.448;2022-12-31T12:03:01;19.60;75.20
63219;DHT22;49320;52.512;13.448;2022-12-31T12:05:31;19.60;75.30
63219;DHT22;49320;52.512;13.448;2022-12-31T12:08:00;19.70;75.30
63219;DHT22;49320;52.512;13.448;2022-12-31T12:10:30;19.70;75.20
63219;DHT22;49320;52.512;13.448;2022-12-31T12:13:18;19.80;75.00
63219;DHT22;49320;52.512;13.448;2022-12-31T12:15:52;19.80;74.20
63219;DHT22;49320;52.512;13.448;2022-12-31T12:21:10;19.90;74.60
63219;DHT22;49320;52.512;13.448;2022-12-31T12:24:04;20.00;74.10
63219;DHT22;49320;52.512;13.448;2022-12-31T12:26:43;20.00;73.60
63219;DHT22;49320;52.512;13.448;2022-12-31T12:29:16;20.10;74.10
63219;DHT22;49320;52.512;13.448;2022-12-31T12:34:37;20.20;73.30
63219;DHT22;49320;52.512;13.448;2022-12-31T12:37:32;20.20;72.90
63219;DHT22;49320;52.512;13.448;2022-12-31T12:40:02;20.30;72.80
63219;DHT22;49320;52.512;13.448;2022-12-31T12:42:51;20.30;73.00
63219;DHT22;49320;52.512;13.448;2022-12-31T12:45:22;20.30;72.40
63219;DHT22;49320;52.512;13.448;2022-12-31T12:48:16;20.30;72.50
63219;DHT22;49320;52.512;13.448;2022-12-31T12:50:48;20.40;71.90
63219;DHT22;49320;52.512;13.448;2022-12-31T12:53:42;20.40;72.50
63219;DHT22;49320;52.512;13.448;2022-12-31T12:56:48;20.40;71.60
63219;DHT22;49320;52.512;13.448;2022-12-31T13:09:32;20.50;71.10
63219;DHT22;49320;52.512;13.448;2022-12-31T13:12:15;20.50;71.00
63219;DHT22;49320;52.512;13.448;2022-12-31T13:14:59;20.50;70.70
63219;DHT22;49320;52.512;13.448;2022-12-31T13:20:32;20.50;71.00
63219;DHT22;49320;52.512;13.448;2022-12-31T13:23:25;20.50;71.10
63219;DHT22;49320;52.512;13.448;2022-12-31T13:26:12;20.50;70.80
63219;DHT22;49320;52.512;13.448;2022-12-31T13:28:48;20.50;70.70
63219;DHT22;49320;52.512;13.448;2022-12-31T13:31:22;20.50;70.70
63219;DHT22;49320;52.512;13.448;2022-12-31T13:34:00;20.50;70.50
63219;DHT22;49320;52.512;13.448;2022-12-31T13:36:34;20.50;70.40
63219;DHT22;49320;52.512;13.448;2022-12-31T13:39:13;20.50;70.30
63219;DHT22;49320;52.512;13.448;2022-12-31T13:41:54;20.50;70.10
63219;DHT22;49320;52.512;13.448;2022-12-31T13:44:28;20.50;70.10
63219;DHT22;49320;52.512;13.448;2022-12-31T13:47:26;20.50;70.10
63219;DHT22;49320;52.512;13.448;2022-12-31T13:50:05;20.50;69.50
63219;DHT22;49320;52.512;13.448;2022-12-31T13:53:13;20.50;70.00
63219;DHT22;49320;52.512;13.448;2022-12-31T13:55:59;20.50;69.70
63219;DHT22;49320;52.512;13.448;2022-12-31T13:58:42;20.50;69.40
63219;DHT22;49320;52.512;13.448;2022-12-31T14:01:25;20.50;69.70
63219;DHT22;49320;52.512;13.448;2022-12-31T14:07:13;20.50;69.20
63219;DHT22;49320;52.512;13.448;2022-12-31T14:09:45;20.50;69.20
63219;DHT22;49320;52.512;13.448;2022-12-31T14:15:27;20.40;69.00
63219;DHT22;49320;52.512;13.448;2022-12-31T14:21:00;20.40;69.40
63219;DHT22;49320;52.512;13.448;2022-12-31T14:26:40;20.40;69.40
63219;DHT22;49320;52.512;13.448;2022-12-31T14:37:11;20.40;69.50
63219;DHT22;49320;52.512;13.448;2022-12-31T14:40:04;20.40;69.10
63219;DHT22;49320;52.512;13.448;2022-12-31T14:42:53;20.40;68.90
63219;DHT22;49320;52.512;13.448;2022-12-31T14:45:45;20.40;69.20
63219;DHT22;49320;52.512;13.448;2022-12-31T14:48:42;20.40;68.80
63219;DHT22;49320;52.512;13.448;2022-12-31T14:51:18;20.40;68.60
63219;DHT22;49320;52.512;13.448;2022-12-31T14:53:53;20.30;69.00
63219;DHT22;49320;52.512;13.448;2022-12-31T14:56:31;20.30;68.70
63219;DHT22;49320;52.512;13.448;2022-12-31T14:59:26;20.30;68.70
63219;DHT22;49320;52.512;13.448;2022-12-31T15:01:55;20.30;68.50
63219;DHT22;49320;52.512;13.448;2022-12-31T15:04:33;20.40;69.00
63219;DHT22;49320;52.512;13.448;2022-12-31T15:07:36;20.30;68.60
63219;DHT22;49320;52.512;13.448;2022-12-31T15:13:26;20.20;68.40
63219;DHT22;49320;52.512;13.448;2022-12-31T15:24:53;20.10;68.60
63219;DHT22;49320;52.512;13.448;2022-12-31T15:27:40;20.10;69.00
63219;DHT22;49320;52.512;13.448;2022-12-31T15:32:59;20.00;68.70
63219;DHT22;49320;52.512;13.448;2022-12-31T15:35:31;20.00;69.10
63219;DHT22;49320;52.512;13.448;2022-12-31T15:44:19;19.80;69.00
63219;DHT22;49320;52.512;13.448;2022-12-31T15:47:03;19.80;69.80
63219;DHT22;49320;52.512;13.448;2022-12-31T15:49:41;19.80;69.30
63219;DHT22;49320;52.512;13.448;2022-12-31T15:52:25;19.80;69.40
63219;DHT22;49320;52.512;13.448;2022-12-31T15:54:59;19.70;69.20
63219;DHT22;49320;52.512;13.448;2022-12-31T15:57:39;19.80;69.60
63219;DHT22;49320;52.512;13.448;2022-12-31T16:00:15;19.70;69.40
63219;DHT22;49320;52.512;13.448;2022-12-31T16:02:48;19.60;69.40
63219;DHT22;49320;52.512;13.448;2022-12-31T16:05:25;19.60;69.50
63219;DHT22;49320;52.512;13.448;2022-12-31T16:07:57;19.70;69.40
63219;DHT22;49320;52.512;13.448;2022-12-31T16:10:31;19.60;69.50
63219;DHT22;49320;52.512;13.448;2022-12-31T16:12:58;19.60;69.40
63219;DHT22;49320;52.512;13.448;2022-12-31T16:15:30;19.50;70.30
63219;DHT22;49320;52.512;13.448;2022-12-31T16:18:07;19.50;70.20
63219;DHT22;49320;52.512;13.448;2022-12-31T16:20:41;19.50;69.50
63219;DHT22;49320;52.512;13.448;2022-12-31T16:23:20;19.50;69.60
63219;DHT22;49320;52.512;13.448;2022-12-31T16:25:53;19.50;69.50
63219;DHT22;49320;52.512;13.448;2022-12-31T16:28:28;19.50;69.80
63219;DHT22;49320;52.512;13.448;2022-12-31T16:31:05;19.50;69.70
63219;DHT22;49320;52.512;13.448;2022-12-31T16:33:33;19.50;69.60
63219;DHT22;49320;52.512;13.448;2022-12-31T16:36:01;19.50;69.80
63219;DHT22;49320;52.512;13.448;2022-12-31T16:38:35;19.50;69.80
63219;DHT22;49320;52.512;13.448;2022-12-31T16:41:19;19.50;69.60
63219;DHT22;49320;52.512;13.448;2022-12-31T16:43:48;19.50;69.80
63219;DHT22;49320;52.512;13.448;2022-12-31T16:46:23;19.60;69.80
63219;DHT22;49320;52.512;13.448;2022-12-31T16:48:54;19.50;69.70
63219;DHT22;49320;52.512;13.448;2022-12-31T16:51:28;19.50;69.70
63219;DHT22;49320;52.512;13.448;2022-12-31T16:53:57;19.50;69.50
63219;DHT22;49320;52.512;13.448;2022-12-31T16:56:35;19.60;69.80
63219;DHT22;49320;52.512;13.448;2022-12-31T16:59:22;19.60;69.50
63219;DHT22;49320;52.512;13.448;2022-12-31T17:02:02;19.60;69.30
63219;DHT22;49320;52.512;13.448;2022-12-31T17:04:36;19.60;69.50
63219;DHT22;49320;52.512;13.448;2022-12-31T17:07:39;19.60;69.40
63219;DHT22;49320;52.512;13.448;2022-12-31T17:12:40;19.60;69.20
63219;DHT22;49320;52.512;13.448;2022-12-31T17:15:40;19.60;68.90
63219;DHT22;49320;52.512;13.448;2022-12-31T17:18:17;19.60;68.70
63219;DHT22;49320;52.512;13.448;2022-12-31T17:20:48;19.60;68.90
63219;DHT22;49320;52.512;13.448;2022-12-31T17:23:22;19.60;68.90
63219;DHT22;49320;52.512;13.448;2022-12-31T17:25:59;19.60;68.80
63219;DHT22;49320;52.512;13.448;2022-12-31T17:28:46;19.60;68.70
63219;DHT22;49320;52.512;13.448;2022-12-31T17:39:26;19.60;68.50
63219;DHT22;49320;52.512;13.448;2022-12-31T17:42:06;19.60;68.60
63219;DHT22;49320;52.512;13.448;2022-12-31T17:44:38;19.70;68.70
63219;DHT22;49320;52.512;13.448;2022-12-31T17:47:10;19.70;67.80
63219;DHT22;49320;52.512;13.448;2022-12-31T17:49:43;19.70;68.40
63219;DHT22;49320;52.512;13.448;2022-12-31T17:52:13;19.80;68.50
63219;DHT22;49320;52.512;13.448;2022-12-31T17:54:41;19.80;68.50
63219;DHT22;49320;52.512;13.448;2022-12-31T17:57:20;19.80;68.40
63219;DHT22;49320;52.512;13.448;2022-12-31T17:59:50;19.80;68.10
63219;DHT22;49320;52.512;13.448;2022-12-31T18:02:17;19.80;68.30
63219;DHT22;49320;52.512;13.448;2022-12-31T18:04:44;19.80;68.10
63219;DHT22;49320;52.512;13.448;2022-12-31T18:07:11;19.80;68.10
63219;DHT22;49320;52.512;13.448;2022-12-31T18:09:38;19.80;68.00
63219;DHT22;49320;52.512;13.448;2022-12-31T18:12:05;19.80;67.90
63219;DHT22;49320;52.512;13.448;2022-12-31T18:14:32;19.80;67.80
63219;DHT22;49320;52.512;13.448;2022-12-31T18:16:59;19.80;67.80
63219;DHT22;49320;52.512;13.448;2022-12-31T18:19:26;19.80;67.80
63219;DHT22;49320;52.512;13.448;2022-12-31T18:22:14;19.70;67.70
63219;DHT22;49320;52.512;13.448;2022-12-31T18:24:42;19.70;67.60
63219;DHT22;49320;52.512;13.448;2022-12-31T18:27:14;19.70;67.60
63219;DHT22;49320;52.512;13.448;2022-12-31T18:29:43;19.70;67.40
63219;DHT22;49320;52.512;13.448;2022-12-31T18:32:22;19.60;67.50
63219;DHT22;49320;52.512;13.448;2022-12-31T18:34:51;19.70;67.50
63219;DHT22;49320;52.512;13.448;2022-12-31T18:37:18;19.60;67.50
63219;DHT22;49320;52.512;13.448;2022-12-31T18:39:48;19.60;67.60
63219;DHT22;49320;52.512;13.448;2022-12-31T18:42:16;19.50;66.90
63219;DHT22;49320;52.512;13.448;2022-12-31T18:44:45;19.50;67.50
63219;DHT22;49320;52.512;13.448;2022-12-31T18:47:15;19.50;67.50
63219;DHT22;49320;52.512;13.448;2022-12-31T18:49:49;19.50;67.50
63219;DHT22;49320;52.512;13.448;2022-12-31T18:52:18;19.40;67.50
63219;DHT22;49320;52.512;13.448;2022-12-31T18:54:48;19.40;67.50
63219;DHT22;49320;52.512;13.448;2022-12-31T18:57:15;19.40;67.60
63219;DHT22;49320;52.512;13.448;2022-12-31T18:59:42;19.40;67.60
63219;DHT22;49320;52.512;13.448;2022-12-31T19:02:18;19.30;67.50
63219;DHT22;49320;52.512;13.448;2022-12-31T19:04:46;19.30;68.10
63219;DHT22;49320;52.512;13.448;2022-12-31T19:07:13;19.30;68.30
63219;DHT22;49320;52.512;13.448;2022-12-31T19:09:40;19.30;67.70
63219;DHT22;49320;52.512;13.448;2022-12-31T19:12:13;19.20;67.70
63219;DHT22;49320;52.512;13.448;2022-12-31T19:14:40;19.20;67.70
63219;DHT22;49320;52.512;13.448;2022-12-31T19:17:09;19.20;67.90
63219;DHT22;49320;52.512;13.448;2022-12-31T19:19:35;19.20;67.20
63219;DHT22;49320;52.512;13.448;2022-12-31T19:22:01;19.10;67.80
63219;DHT22;49320;52.512;13.448;2022-12-31T19:24:28;19.10;67.80
63219;DHT22;49320;52.512;13.448;2022-12-31T19:26:55;19.10;67.80
63219;DHT22;49320;52.512;13.448;2022-12-31T19:29:25;19.10;67.90